createdAt,value
2019-03-11T00:01:23.807Z,73.57
2019-03-11T00:03:51.555Z,73.37
2019-03-11T00:06:18.885Z,72.90
2019-03-11T00:08:46.549Z,73.34
2019-03-11T00:11:14.210Z,73.53
2019-03-11T00:13:42.140Z,74.26
2019-03-11T00:16:09.694Z,74.31
2019-03-11T00:18:37.183Z,75.62
2019-03-11T00:21:04.825Z,74.83
2019-03-11T00:23:32.646Z,74.52
2019-03-11T00:26:00.397Z,74.07
2019-03-11T00:28:28.340Z,75.41
2019-03-11T00:30:55.918Z,75.11
2019-03-11T00:33:24.511Z,76.75
2019-03-11T00:35:51.984Z,74.95
2019-03-11T00:38:20.249Z,75.59
2019-03-11T00:40:47.921Z,74.73
2019-03-11T00:43:15.625Z,76.39
2019-03-11T00:45:43.353Z,75.35
2019-03-11T00:48:11.063Z,75.61
2019-03-11T00:50:38.807Z,75.54
2019-03-11T00:53:06.359Z,75.99
2019-03-11T00:55:34.091Z,77.01
2019-03-11T00:58:02.101Z,76.09
2019-03-11T01:00:32.919Z,75.42
2019-03-11T01:03:00.670Z,76.41
2019-03-11T01:05:28.549Z,76.64
2019-03-11T01:07:56.399Z,75.46
2019-03-11T01:10:24.227Z,75.93
2019-03-11T01:12:51.481Z,75.30
2019-03-11T01:15:19.166Z,75.54
2019-03-11T01:17:47.340Z,76.21
2019-03-11T01:20:14.886Z,76.65
2019-03-11T01:22:42.324Z,76.12
2019-03-11T01:25:10.278Z,76.30
2019-03-11T01:27:38.112Z,75.85
2019-03-11T01:30:06.086Z,76.18
2019-03-11T01:32:34.367Z,75.61
2019-03-11T01:35:02.228Z,75.59
2019-03-11T01:37:29.577Z,75.10
2019-03-11T01:39:57.056Z,76.04
2019-03-11T01:42:24.496Z,75.31
2019-03-11T01:44:52.129Z,75.21
2019-03-11T01:47:19.951Z,75.43
2019-03-11T01:49:47.580Z,75.44
2019-03-11T01:52:15.167Z,75.39
2019-03-11T01:54:43.427Z,75.01
2019-03-11T01:57:10.967Z,74.96
2019-03-11T01:59:38.374Z,75.00
2019-03-11T02:02:06.701Z,74.77
2019-03-11T02:04:34.257Z,74.81
2019-03-11T02:07:02.075Z,74.86
2019-03-11T02:09:29.776Z,74.40
2019-03-11T02:11:57.566Z,74.55
2019-03-11T02:14:25.454Z,75.05
2019-03-11T02:16:53.106Z,75.31
2019-03-11T02:19:20.369Z,74.82
2019-03-11T02:21:48.348Z,74.66
2019-03-11T02:24:16.332Z,74.57
2019-03-11T02:26:44.135Z,74.90
2019-03-11T02:29:11.998Z,74.80
2019-03-11T02:31:39.781Z,75.16
2019-03-11T02:34:06.930Z,75.27
2019-03-11T02:36:34.762Z,75.79
2019-03-11T02:39:02.880Z,75.66
2019-03-11T02:41:30.604Z,75.15
2019-03-11T02:43:58.431Z,75.48
2019-03-11T02:46:26.442Z,75.23
2019-03-11T02:48:53.854Z,75.03
2019-03-11T02:51:21.292Z,75.05
2019-03-11T02:53:49.159Z,74.96
2019-03-11T02:56:17.167Z,74.84
2019-03-11T02:58:44.901Z,74.81
2019-03-11T03:01:30.346Z,74.83
2019-03-11T03:04:02.083Z,74.68
2019-03-11T03:06:29.650Z,74.36
2019-03-11T03:08:57.265Z,74.25
2019-03-11T03:11:25.443Z,74.34
2019-03-11T03:13:52.765Z,73.77
2019-03-11T03:16:20.615Z,73.24
2019-03-11T03:18:47.801Z,73.29
2019-03-11T03:21:15.401Z,73.37
2019-03-11T03:23:43.373Z,73.42
2019-03-11T03:26:11.234Z,73.54
2019-03-11T03:28:38.771Z,72.66
2019-03-11T03:31:06.362Z,72.43
2019-03-11T03:33:34.602Z,72.30
2019-03-11T03:36:02.552Z,72.63
2019-03-11T03:38:31.385Z,72.42
2019-03-11T03:40:59.191Z,72.40
2019-03-11T03:43:27.048Z,72.57
2019-03-11T03:45:54.439Z,73.98
2019-03-11T03:48:22.327Z,75.34
2019-03-11T03:50:49.700Z,75.46
2019-03-11T03:53:17.822Z,76.41
2019-03-11T03:55:45.693Z,76.33
2019-03-11T03:58:13.405Z,77.42
2019-03-11T04:00:40.935Z,77.61
2019-03-11T04:03:08.816Z,76.82
2019-03-11T04:05:36.091Z,76.60
2019-03-11T04:08:03.845Z,76.05
2019-03-11T04:10:33.164Z,76.89
2019-03-11T04:13:01.106Z,76.36
2019-03-11T04:15:28.525Z,76.81
2019-03-11T04:17:56.048Z,76.98
2019-03-11T04:20:24.747Z,76.82
2019-03-11T04:22:52.255Z,77.30
2019-03-11T04:25:20.023Z,77.33
2019-03-11T04:27:47.677Z,76.88
2019-03-11T04:30:18.255Z,77.49
2019-03-11T04:32:46.129Z,77.99
2019-03-11T04:35:14.022Z,78.27
2019-03-11T04:37:41.713Z,78.27
2019-03-11T04:40:10.902Z,78.91
2019-03-11T04:42:38.464Z,78.12
2019-03-11T04:45:07.549Z,78.05
2019-03-11T04:47:35.332Z,78.26
2019-03-11T04:50:03.556Z,77.89
2019-03-11T04:52:31.176Z,77.65
2019-03-11T04:54:59.014Z,77.60
2019-03-11T04:57:27.216Z,77.39
2019-03-11T04:59:54.804Z,76.93
2019-03-11T05:02:22.578Z,77.69
2019-03-11T05:04:50.763Z,76.91
2019-03-11T05:07:18.239Z,77.26
2019-03-11T05:09:46.226Z,77.99
2019-03-11T05:12:13.903Z,77.35
2019-03-11T05:14:41.618Z,77.93
2019-03-11T05:17:09.459Z,78.30
2019-03-11T05:19:37.259Z,78.27
2019-03-11T05:22:05.284Z,78.19
2019-03-11T05:24:32.878Z,77.66
2019-03-11T05:27:00.570Z,78.17
2019-03-11T05:29:27.915Z,77.90
2019-03-11T05:31:55.293Z,77.94
2019-03-11T05:34:22.899Z,77.99
2019-03-11T05:36:50.225Z,77.74
2019-03-11T05:39:18.069Z,77.26
2019-03-11T05:41:46.373Z,77.33
2019-03-11T05:44:14.040Z,77.49
2019-03-11T05:46:41.457Z,77.92
2019-03-11T05:49:08.795Z,77.73
2019-03-11T05:51:36.664Z,78.74
2019-03-11T05:54:04.024Z,78.47
2019-03-11T05:56:31.865Z,78.59
2019-03-11T05:58:59.921Z,79.25
2019-03-11T06:01:27.163Z,79.27
2019-03-11T06:03:55.290Z,79.66
2019-03-11T06:06:23.711Z,79.76
2019-03-11T06:08:51.841Z,80.25
2019-03-11T06:11:19.466Z,80.31
2019-03-11T06:13:47.570Z,79.57
2019-03-11T06:16:16.179Z,79.88
2019-03-11T06:18:47.734Z,80.63
2019-03-11T06:21:35.233Z,79.75
2019-03-11T06:24:03.162Z,79.61
2019-03-11T06:26:30.795Z,80.42
2019-03-11T06:28:58.437Z,80.37
2019-03-11T06:31:26.713Z,79.10
2019-03-11T06:33:55.027Z,79.07
2019-03-11T06:36:22.749Z,78.40
2019-03-11T06:38:50.445Z,78.98
2019-03-11T06:41:17.967Z,79.35
2019-03-11T06:43:45.541Z,80.06
2019-03-11T06:46:12.739Z,79.99
2019-03-11T06:48:41.184Z,80.00
2019-03-11T06:51:08.725Z,79.51
2019-03-11T06:53:35.965Z,78.79
2019-03-11T06:56:03.779Z,80.15
2019-03-11T06:58:31.196Z,79.25
2019-03-11T07:00:59.164Z,79.19
2019-03-11T07:03:26.943Z,79.60
2019-03-11T07:05:54.588Z,78.94
2019-03-11T07:08:22.114Z,78.60
2019-03-11T07:10:49.793Z,80.03
2019-03-11T07:13:17.505Z,79.66
2019-03-11T07:15:45.477Z,77.56
2019-03-11T07:18:13.048Z,76.50
2019-03-11T07:20:40.325Z,76.21
2019-03-11T07:23:07.819Z,76.58
2019-03-11T07:25:35.500Z,78.72
2019-03-11T07:28:03.075Z,77.63
2019-03-11T07:30:33.774Z,77.47
2019-03-11T07:33:02.128Z,76.87
2019-03-11T07:35:29.814Z,76.76
2019-03-11T07:37:57.460Z,76.19
2019-03-11T07:40:30.140Z,76.10
2019-03-11T07:42:55.451Z,75.77
2019-03-11T07:45:23.122Z,75.77
2019-03-11T07:47:50.432Z,76.48
2019-03-11T07:50:18.064Z,75.82
2019-03-11T07:52:46.203Z,75.73
2019-03-11T07:55:13.863Z,77.01
2019-03-11T07:57:41.457Z,76.60
2019-03-11T08:00:09.798Z,75.19
2019-03-11T08:02:37.928Z,76.04
2019-03-11T08:05:06.946Z,75.24
2019-03-11T08:07:34.690Z,75.73
2019-03-11T08:10:02.212Z,75.62
2019-03-11T08:12:29.616Z,74.00
2019-03-11T08:14:57.155Z,69.32
2019-03-11T08:17:24.547Z,70.90
2019-03-11T08:19:52.719Z,73.41
2019-03-11T08:22:20.118Z,72.43
2019-03-11T08:24:47.545Z,72.19
2019-03-11T08:27:15.086Z,71.70
2019-03-11T08:29:42.605Z,69.16
2019-03-11T08:32:09.861Z,64.97
2019-03-11T08:34:38.352Z,66.15
2019-03-11T08:37:06.939Z,66.59
2019-03-11T08:39:35.001Z,69.28
2019-03-11T08:42:02.729Z,69.43
2019-03-11T08:44:30.104Z,66.64
2019-03-11T08:46:57.526Z,57.03
2019-03-11T08:49:25.151Z,62.24
2019-03-11T08:51:52.648Z,63.90
2019-03-11T08:54:20.234Z,64.44
2019-03-11T08:56:47.574Z,63.92
2019-03-11T08:59:16.692Z,60.17
2019-03-11T09:01:44.537Z,56.32
2019-03-11T09:04:12.214Z,57.93
2019-03-11T09:06:39.913Z,60.64
2019-03-11T09:09:11.330Z,60.01
2019-03-11T09:11:39.677Z,59.61
2019-03-11T09:14:07.403Z,58.26
2019-03-11T09:16:35.526Z,59.48
2019-03-11T09:19:03.200Z,57.40
2019-03-11T09:21:30.863Z,59.85
2019-03-11T09:23:58.896Z,57.53
2019-03-11T09:26:26.485Z,61.82
2019-03-11T09:28:54.403Z,58.99
2019-03-11T09:31:22.121Z,55.13
2019-03-11T09:33:50.022Z,55.74
2019-03-11T09:36:17.674Z,59.27
2019-03-11T09:38:45.361Z,57.44
2019-03-11T09:41:12.961Z,58.42
2019-03-11T09:43:40.497Z,60.39
2019-03-11T09:46:07.936Z,59.70
2019-03-11T09:48:35.205Z,58.95
2019-03-11T09:51:02.968Z,63.44
2019-03-11T09:53:31.137Z,62.64
2019-03-11T09:55:58.719Z,63.33
2019-03-11T09:58:26.687Z,66.15
2019-03-11T10:00:54.651Z,63.82
2019-03-11T10:03:21.852Z,63.09
2019-03-11T10:05:49.286Z,61.18
2019-03-11T10:08:16.919Z,64.76
2019-03-11T10:10:44.707Z,60.84
2019-03-11T10:13:12.113Z,59.73
2019-03-11T10:15:39.768Z,57.99
2019-03-11T10:18:07.150Z,58.46
2019-03-11T10:20:34.784Z,56.95
2019-03-11T10:23:02.066Z,58.34
2019-03-11T10:25:30.231Z,54.48
2019-03-11T10:27:58.148Z,55.71
2019-03-11T10:30:28.564Z,57.29
2019-03-11T10:32:57.156Z,54.46
2019-03-11T10:35:31.894Z,57.17
2019-03-11T10:37:54.315Z,53.12
2019-03-11T10:40:21.723Z,54.32
2019-03-11T10:42:49.116Z,48.26
2019-03-11T10:45:16.951Z,52.85
2019-03-11T10:47:44.759Z,49.89
2019-03-11T10:50:12.475Z,50.85
2019-03-11T10:52:40.017Z,48.34
2019-03-11T10:55:10.059Z,49.21
2019-03-11T10:57:38.047Z,49.10
2019-03-11T11:00:10.679Z,53.20
2019-03-11T11:02:38.590Z,53.16
2019-03-11T11:05:06.786Z,48.71
2019-03-11T11:07:34.390Z,51.81
2019-03-11T11:10:02.155Z,46.11
2019-03-11T11:12:30.032Z,49.62
2019-03-11T11:14:57.217Z,47.92
2019-03-11T11:17:24.705Z,50.27
2019-03-11T11:20:02.878Z,47.79
2019-03-11T11:22:22.339Z,45.43
2019-03-11T11:24:49.609Z,48.25
2019-03-11T11:27:17.303Z,48.63
2019-03-11T11:29:45.398Z,46.86
2019-03-11T11:32:13.478Z,43.78
2019-03-11T11:34:41.330Z,42.98
2019-03-11T11:37:09.062Z,42.38
2019-03-11T11:39:36.431Z,44.69
2019-03-11T11:42:04.642Z,44.08
2019-03-11T11:44:31.937Z,48.26
2019-03-11T11:46:59.696Z,46.68
2019-03-11T11:49:27.418Z,43.64
2019-03-11T11:51:55.497Z,44.12
2019-03-11T11:54:23.208Z,45.43
2019-03-11T11:56:51.427Z,45.36
2019-03-11T11:59:19.349Z,43.90
2019-03-11T12:02:03.287Z,46.95
2019-03-11T12:04:24.452Z,42.43
2019-03-11T12:06:51.874Z,43.35
2019-03-11T12:09:19.649Z,46.22
2019-03-11T12:11:47.871Z,45.26
2019-03-11T12:14:15.710Z,45.95
2019-03-11T12:16:43.268Z,44.97
2019-03-11T12:19:11.117Z,45.11
2019-03-11T12:21:38.961Z,43.58
2019-03-11T12:24:07.679Z,45.64
2019-03-11T12:26:35.757Z,49.13
2019-03-11T12:29:03.972Z,47.27
2019-03-11T12:31:31.771Z,46.47
2019-03-11T12:33:59.681Z,45.45
2019-03-11T12:36:27.416Z,46.36
2019-03-11T12:38:54.710Z,49.86
2019-03-11T12:41:22.104Z,47.13
2019-03-11T12:43:50.189Z,47.47
2019-03-11T12:46:20.562Z,50.48
2019-03-11T12:48:49.049Z,50.05
2019-03-11T12:51:17.235Z,49.14
2019-03-11T12:53:44.439Z,49.32
2019-03-11T12:56:12.626Z,48.43
2019-03-11T12:58:41.818Z,48.09
2019-03-11T13:01:09.658Z,48.63
2019-03-11T13:03:37.526Z,47.28
2019-03-11T13:06:05.054Z,47.91
2019-03-11T13:08:32.460Z,47.57
2019-03-11T13:11:00.291Z,52.23
2019-03-11T13:13:28.137Z,50.32
2019-03-11T13:15:55.612Z,51.37
2019-03-11T13:18:35.303Z,49.70
2019-03-11T13:21:20.365Z,48.54
2019-03-11T13:23:47.914Z,49.68
2019-03-11T13:26:15.249Z,51.31
2019-03-11T13:28:43.173Z,49.56
2019-03-11T13:31:10.747Z,49.51
2019-03-11T13:33:38.744Z,49.89
2019-03-11T13:36:07.604Z,50.41
2019-03-11T13:38:36.626Z,48.44
2019-03-11T13:41:04.665Z,50.58
2019-03-11T13:43:32.142Z,49.72
2019-03-11T13:45:59.975Z,50.49
2019-03-11T13:48:27.676Z,54.73
2019-03-11T13:50:55.440Z,50.79
2019-03-11T13:53:23.186Z,49.99
2019-03-11T13:55:50.747Z,49.83
2019-03-11T13:58:18.050Z,51.93
2019-03-11T14:00:56.065Z,50.36
2019-03-11T14:03:14.757Z,51.13
2019-03-11T14:05:42.191Z,51.08
2019-03-11T14:08:10.322Z,51.46
2019-03-11T14:10:37.944Z,51.56
2019-03-11T14:13:05.798Z,51.79
2019-03-11T14:15:33.466Z,54.04
2019-03-11T14:18:01.459Z,50.62
2019-03-11T14:20:31.663Z,49.45
2019-03-11T14:22:59.558Z,48.84
2019-03-11T14:25:26.847Z,51.04
2019-03-11T14:27:54.668Z,52.08
2019-03-11T14:30:22.261Z,52.69
2019-03-11T14:32:50.270Z,54.38
2019-03-11T14:35:18.139Z,55.04
2019-03-11T14:37:45.909Z,53.31
2019-03-11T14:40:13.434Z,54.47
2019-03-11T14:42:41.562Z,52.57
2019-03-11T14:45:12.038Z,54.29
2019-03-11T14:47:39.436Z,53.69
2019-03-11T14:50:07.966Z,51.06
2019-03-11T14:52:35.750Z,53.54
2019-03-11T14:55:03.725Z,52.88
2019-03-11T14:57:31.371Z,54.08
2019-03-11T14:59:59.706Z,54.63
2019-03-11T15:02:27.468Z,51.46
2019-03-11T15:04:54.884Z,53.20
2019-03-11T15:07:22.303Z,50.24
2019-03-11T15:09:51.629Z,53.39
2019-03-11T15:12:19.687Z,51.82
2019-03-11T15:14:47.516Z,51.70
2019-03-11T15:17:15.238Z,51.17
2019-03-11T15:19:43.229Z,52.19
2019-03-11T15:22:10.481Z,53.05
2019-03-11T15:24:38.431Z,53.78
2019-03-11T15:27:06.434Z,56.27
2019-03-11T15:29:33.867Z,57.17
2019-03-11T15:32:02.363Z,58.16
2019-03-11T15:34:30.161Z,57.85
2019-03-11T15:36:57.891Z,58.46
2019-03-11T15:39:25.688Z,58.44
2019-03-11T15:41:53.367Z,59.02
2019-03-11T15:44:20.932Z,59.24
2019-03-11T15:46:48.653Z,59.83
2019-03-11T15:49:16.362Z,58.51
2019-03-11T15:51:43.995Z,58.34
2019-03-11T15:54:11.693Z,59.52
2019-03-11T15:56:39.464Z,60.73
2019-03-11T15:59:07.294Z,58.07
2019-03-11T16:01:35.401Z,59.15
2019-03-11T16:04:02.975Z,59.71
2019-03-11T16:06:31.377Z,60.72
2019-03-11T16:08:59.338Z,60.07
2019-03-11T16:11:27.416Z,61.59
2019-03-11T16:13:55.151Z,62.16
2019-03-11T16:16:23.060Z,61.02
2019-03-11T16:18:50.844Z,62.41
2019-03-11T16:21:18.598Z,65.10
2019-03-11T16:23:46.300Z,63.06
2019-03-11T16:26:14.406Z,64.24
2019-03-11T16:28:48.108Z,63.59
2019-03-11T16:31:11.586Z,63.82
2019-03-11T16:33:39.315Z,65.17
2019-03-11T16:36:06.742Z,62.03
2019-03-11T16:38:34.434Z,62.81
2019-03-11T16:41:02.215Z,64.89
2019-03-11T16:43:30.073Z,65.59
2019-03-11T16:45:58.077Z,65.59
2019-03-11T16:48:26.013Z,61.72
2019-03-11T16:50:53.254Z,65.82
2019-03-11T16:53:21.109Z,64.27
2019-03-11T16:55:49.942Z,64.77
2019-03-11T16:58:17.811Z,65.72
2019-03-11T17:00:45.638Z,67.01
2019-03-11T17:03:13.659Z,66.12
2019-03-11T17:05:41.383Z,66.45
2019-03-11T17:08:09.202Z,63.90
2019-03-11T17:10:36.704Z,67.37
2019-03-11T17:13:04.280Z,65.99
2019-03-11T17:15:32.509Z,65.67
2019-03-11T17:18:00.588Z,67.88
2019-03-11T17:20:29.078Z,66.64
2019-03-11T17:22:56.845Z,62.42
2019-03-11T17:25:24.864Z,65.32
2019-03-11T17:27:52.702Z,66.97
2019-03-11T17:30:20.262Z,64.88
2019-03-11T17:32:47.757Z,65.74
2019-03-11T17:35:15.639Z,66.34
2019-03-11T17:37:43.461Z,66.88
2019-03-11T17:40:13.987Z,66.57
2019-03-11T17:42:41.494Z,64.39
2019-03-11T17:45:09.657Z,65.83
2019-03-11T17:47:37.724Z,66.17
2019-03-11T17:50:07.363Z,65.41
2019-03-11T17:52:34.991Z,66.23
2019-03-11T17:55:03.457Z,63.51
2019-03-11T17:57:31.157Z,64.99
2019-03-11T17:59:59.066Z,66.62
2019-03-11T18:02:26.894Z,64.15
2019-03-11T18:04:54.943Z,66.12
2019-03-11T18:07:22.182Z,63.19
2019-03-11T18:09:49.618Z,65.06
2019-03-11T18:12:17.496Z,65.09
2019-03-11T18:14:45.286Z,65.29
2019-03-11T18:17:12.709Z,64.48
2019-03-11T18:19:40.267Z,62.41
2019-03-11T18:22:07.661Z,63.53
2019-03-11T18:24:35.704Z,64.09
2019-03-11T18:27:03.480Z,65.69
2019-03-11T18:29:31.919Z,64.15
2019-03-11T18:32:02.231Z,62.07
2019-03-11T18:34:29.321Z,63.79
2019-03-11T18:36:57.619Z,63.76
2019-03-11T18:39:25.276Z,62.87
2019-03-11T18:41:53.896Z,62.79
2019-03-11T18:44:21.452Z,63.39
2019-03-11T18:46:49.085Z,63.54
2019-03-11T18:49:17.109Z,62.66
2019-03-11T18:51:44.614Z,61.82
2019-03-11T18:54:12.699Z,63.69
2019-03-11T18:56:40.944Z,62.26
2019-03-11T18:59:08.382Z,63.65
2019-03-11T19:01:36.121Z,62.84
2019-03-11T19:04:04.395Z,63.39
2019-03-11T19:06:32.230Z,62.84
2019-03-11T19:08:59.739Z,63.26
2019-03-11T19:11:27.559Z,62.10
2019-03-11T19:13:55.416Z,63.37
2019-03-11T19:16:23.505Z,62.33
2019-03-11T19:18:50.746Z,62.06
2019-03-11T19:21:18.673Z,64.81
2019-03-11T19:23:46.502Z,64.20
2019-03-11T19:26:14.285Z,61.53
2019-03-11T19:28:42.398Z,62.49
2019-03-11T19:31:10.068Z,62.80
2019-03-11T19:33:38.270Z,62.20
2019-03-11T19:36:05.854Z,63.63
2019-03-11T19:38:34.025Z,64.64
2019-03-11T19:41:01.719Z,63.42
2019-03-11T19:43:29.574Z,62.78
2019-03-11T19:45:57.609Z,63.68
2019-03-11T19:48:25.002Z,63.91
2019-03-11T19:52:00.133Z,64.93
2019-03-11T19:54:27.485Z,62.23
2019-03-11T19:56:55.267Z,63.07
2019-03-11T19:59:23.797Z,61.53
2019-03-11T20:01:52.069Z,62.15
2019-03-11T20:04:19.458Z,61.23
2019-03-11T20:06:47.287Z,62.49
2019-03-11T20:09:45.504Z,61.49
2019-03-11T20:12:13.331Z,61.88
2019-03-11T20:14:41.012Z,59.43
2019-03-11T20:17:08.623Z,62.64
2019-03-11T20:19:36.732Z,63.79
2019-03-11T20:22:05.189Z,63.99
2019-03-11T20:24:32.727Z,60.26
2019-03-11T20:27:00.931Z,64.22
2019-03-11T20:29:28.415Z,61.67
2019-03-11T20:31:56.609Z,62.27
2019-03-11T20:34:24.669Z,63.21
2019-03-11T20:36:52.392Z,62.84
2019-03-11T20:39:20.785Z,62.24
2019-03-11T20:41:48.357Z,63.53
2019-03-11T20:44:16.346Z,62.65
2019-03-11T20:46:44.444Z,61.59
2019-03-11T20:49:12.655Z,64.12
2019-03-11T20:51:40.674Z,63.71
2019-03-11T20:54:08.512Z,64.41
2019-03-11T20:56:36.392Z,62.98
2019-03-11T20:59:03.817Z,61.34
2019-03-11T21:01:32.351Z,63.07
2019-03-11T21:03:59.758Z,63.21
2019-03-11T21:06:27.431Z,63.73
2019-03-11T21:08:55.533Z,61.42
2019-03-11T21:11:22.995Z,63.91
2019-03-11T21:13:51.030Z,61.90
2019-03-11T21:16:18.930Z,62.62
2019-03-11T21:18:46.209Z,62.53
2019-03-11T21:21:14.351Z,62.35
2019-03-11T21:23:41.892Z,62.58
2019-03-11T21:26:10.074Z,62.18
2019-03-11T21:28:37.835Z,63.47
2019-03-11T21:31:05.503Z,62.20
2019-03-11T21:33:33.214Z,61.56
2019-03-11T21:36:01.280Z,63.15
2019-03-11T21:38:28.819Z,61.55
2019-03-11T21:40:57.147Z,63.44
2019-03-11T21:43:24.587Z,62.67
2019-03-11T21:45:52.682Z,63.10
2019-03-11T21:48:20.298Z,63.69
2019-03-11T21:50:48.550Z,61.84
2019-03-11T21:53:16.464Z,64.37
2019-03-11T21:55:43.984Z,64.21
2019-03-11T21:58:13.415Z,64.12
2019-03-11T22:00:41.309Z,63.15
2019-03-11T22:03:09.104Z,65.80
2019-03-11T22:05:36.701Z,64.36
2019-03-11T22:08:04.104Z,62.48
2019-03-11T22:10:31.767Z,63.67
2019-03-11T22:12:59.540Z,63.21
2019-03-11T22:15:27.234Z,63.97
2019-03-11T22:17:54.942Z,63.49
2019-03-11T22:20:23.059Z,62.60
2019-03-11T22:22:50.363Z,63.81
2019-03-11T22:25:17.943Z,62.89
2019-03-11T22:27:46.042Z,62.85
2019-03-11T22:30:15.944Z,62.33
2019-03-11T22:32:44.090Z,63.37
2019-03-11T22:35:13.013Z,62.86
2019-03-11T22:37:41.116Z,63.58
2019-03-11T22:40:09.321Z,63.15
2019-03-11T22:42:37.100Z,63.91
2019-03-11T22:45:07.096Z,63.40
2019-03-11T22:47:35.170Z,63.48
2019-03-11T22:50:03.532Z,62.95
2019-03-11T22:52:32.122Z,64.06
2019-03-11T22:54:59.392Z,63.61
2019-03-11T22:57:29.800Z,63.68
2019-03-11T22:59:57.348Z,63.80
2019-03-11T23:02:25.162Z,64.96
2019-03-11T23:04:52.837Z,63.46
2019-03-11T23:07:20.210Z,64.80
2019-03-11T23:09:47.859Z,64.42
2019-03-11T23:12:15.334Z,65.11
2019-03-11T23:14:43.186Z,64.38
2019-03-11T23:17:10.713Z,64.96
2019-03-11T23:19:38.559Z,64.89
2019-03-11T23:22:06.913Z,65.11
2019-03-11T23:24:34.832Z,65.32
2019-03-11T23:27:02.398Z,65.46
2019-03-11T23:29:30.409Z,66.24
2019-03-11T23:31:58.110Z,66.35
2019-03-11T23:34:25.636Z,65.82
2019-03-11T23:36:53.157Z,67.18
2019-03-11T23:39:21.052Z,66.33
2019-03-11T23:41:48.468Z,66.35
2019-03-11T23:44:15.605Z,67.92
2019-03-11T23:46:43.190Z,65.93
2019-03-11T23:49:10.372Z,66.12
2019-03-11T23:51:37.998Z,66.61
2019-03-11T23:54:05.790Z,66.89
2019-03-11T23:56:33.245Z,66.86
2019-03-11T23:59:00.512Z,67.07
